sensor_id;sensor_type;location;lat;lon;timestamp;pressure;altitude;pressure_sealevel;temperature
76541;BMP280;65385;55.772;37.658;2023-02-26T13:51:40;97872.00;;;0.82
76541;BMP280;65385;55.772;37.658;2023-02-26T13:54:06;97883.25;;;0.76
76541;BMP280;65385;55.772;37.658;2023-02-26T13:55:40;97881.38;;;0.71
76541;BMP280;65385;55.772;37.658;2023-02-26T13:56:51;97871.25;;;0.65
76541;BMP280;65385;55.772;37.658;2023-02-26T13:57:52;97886.50;;;0.55
76541;BMP280;65385;55.772;37.658;2023-02-26T13:59:02;97885.28;;;0.57
76541;BMP280;65385;55.772;37.658;2023-02-26T14:00:27;97883.38;;;0.53
76541;BMP280;65385;55.772;37.658;2023-02-26T14:01:33;97868.44;;;0.50
76541;BMP280;65385;55.772;37.658;2023-02-26T14:02:46;97893.59;;;0.48
76541;BMP280;65385;55.772;37.658;2023-02-26T14:03:52;97898.97;;;0.46
76541;BMP280;65385;55.772;37.658;2023-02-26T14:05:27;97897.66;;;0.44
76541;BMP280;65385;55.772;37.658;2023-02-26T14:07:52;97903.31;;;0.46
76541;BMP280;65385;55.772;37.658;2023-02-26T14:08:54;97894.06;;;0.45
76541;BMP280;65385;55.772;37.658;2023-02-26T14:09:59;97898.41;;;0.44
76541;BMP280;65385;55.772;37.658;2023-02-26T14:11:01;97911.25;;;0.44
76541;BMP280;65385;55.772;37.658;2023-02-26T14:13:20;97917.66;;;0.42
76541;BMP280;65385;55.772;37.658;2023-02-26T14:15:38;97916.53;;;0.37
76541;BMP280;65385;55.772;37.658;2023-02-26T14:16:42;97910.88;;;0.35
76541;BMP280;65385;55.772;37.658;2023-02-26T14:17:48;97926.81;;;0.37
76541;BMP280;65385;55.772;37.658;2023-02-26T14:18:51;97917.81;;;0.35
76541;BMP280;65385;55.772;37.658;2023-02-26T14:21:54;97921.25;;;0.40
76541;BMP280;65385;55.772;37.658;2023-02-26T14:22:36;97929.16;;;0.39
76541;BMP280;65385;55.772;37.658;2023-02-26T14:23:46;97924.59;;;0.41
76541;BMP280;65385;55.772;37.658;2023-02-26T14:24:55;97924.09;;;0.44
76541;BMP280;65385;55.772;37.658;2023-02-26T14:26:03;97930.81;;;0.45
76541;BMP280;65385;55.772;37.658;2023-02-26T14:29:24;97937.84;;;0.50
76541;BMP280;65385;55.772;37.658;2023-02-26T14:30:29;97941.19;;;0.50
76541;BMP280;65385;55.772;37.658;2023-02-26T14:32:51;97938.63;;;0.50
76541;BMP280;65385;55.772;37.658;2023-02-26T14:33:26;97931.94;;;0.49
76541;BMP280;65385;55.772;37.658;2023-02-26T14:34:34;97939.94;;;0.53
76541;BMP280;65385;55.772;37.658;2023-02-26T14:35:40;97957.41;;;0.51
76541;BMP280;65385;55.772;37.658;2023-02-26T14:36:45;97957.41;;;0.51
76541;BMP280;65385;55.772;37.658;2023-02-26T14:38:02;97961.75;;;0.50
76541;BMP280;65385;55.772;37.658;2023-02-26T14:39:05;97958.31;;;0.45
76541;BMP280;65385;55.772;37.658;2023-02-26T14:40:15;97969.06;;;0.42
76541;BMP280;65385;55.772;37.658;2023-02-26T14:41:30;97960.22;;;0.37
76541;BMP280;65385;55.772;37.658;2023-02-26T14:42:36;97957.84;;;0.31
76541;BMP280;65385;55.772;37.658;2023-02-26T14:43:42;97957.06;;;0.30
76541;BMP280;65385;55.772;37.658;2023-02-26T14:44:49;97959.53;;;0.25
76541;BMP280;65385;55.772;37.658;2023-02-26T14:45:53;97970.59;;;0.26
76541;BMP280;65385;55.772;37.658;2023-02-26T14:46:53;97975.41;;;0.22
76541;BMP280;65385;55.772;37.658;2023-02-26T14:47:57;97952.75;;;0.19
76541;BMP280;65385;55.772;37.658;2023-02-26T14:48:58;97966.28;;;0.15
76541;BMP280;65385;55.772;37.658;2023-02-26T14:49:59;97977.09;;;0.17
76541;BMP280;65385;55.772;37.658;2023-02-26T14:52:41;97980.81;;;0.09
76541;BMP280;65385;55.772;37.658;2023-02-26T14:56:19;97986.41;;;0.06
76541;BMP280;65385;55.772;37.658;2023-02-26T15:00:24;97990.91;;;-0.01
76541;BMP280;65385;55.772;37.658;2023-02-26T15:01:49;97997.59;;;0.00
76541;BMP280;65385;55.772;37.658;2023-02-26T15:03:33;98001.19;;;-0.01
76541;BMP280;65385;55.772;37.658;2023-02-26T15:09:12;98024.41;;;-0.08
76541;BMP280;65385;55.772;37.658;2023-02-26T15:10:45;98030.56;;;-0.09
76541;BMP280;65385;55.772;37.658;2023-02-26T15:11:53;98016.94;;;-0.09
76541;BMP280;65385;55.772;37.658;2023-02-26T15:20:00;98022.72;;;-0.14
76541;BMP280;65385;55.772;37.658;2023-02-26T15:21:12;98025.28;;;-0.14
76541;BMP280;65385;55.772;37.658;2023-02-26T15:23:27;98034.56;;;-0.13
76541;BMP280;65385;55.772;37.658;2023-02-26T15:24:32;98024.41;;;-0.19
76541;BMP280;65385;55.772;37.658;2023-02-26T15:25:38;98037.03;;;-0.18
76541;BMP280;65385;55.772;37.658;2023-02-26T15:26:46;98040.81;;;-0.20
76541;BMP280;65385;55.772;37.658;2023-02-26T15:27:48;98039.81;;;-0.19
76541;BMP280;65385;55.772;37.658;2023-02-26T15:28:49;98045.97;;;-0.20
76541;BMP280;65385;55.772;37.658;2023-02-26T15:29:50;98041.81;;;-0.21
76541;BMP280;65385;55.772;37.658;2023-02-26T15:30:52;98048.75;;;-0.22
76541;BMP280;65385;55.772;37.658;2023-02-26T15:31:56;98049.53;;;-0.21
76541;BMP280;65385;55.772;37.658;2023-02-26T15:33:03;98053.66;;;-0.20
76541;BMP280;65385;55.772;37.658;2023-02-26T15:34:04;98050.56;;;-0.22
76541;BMP280;65385;55.772;37.658;2023-02-26T15:35:19;98063.16;;;-0.21
76541;BMP280;65385;55.772;37.658;2023-02-26T15:36:20;98053.88;;;-0.22
76541;BMP280;65385;55.772;37.658;2023-02-26T15:37:25;98051.31;;;-0.22
76541;BMP280;65385;55.772;37.658;2023-02-26T15:38:26;98068.06;;;-0.19
76541;BMP280;65385;55.772;37.658;2023-02-26T15:39:27;98060.59;;;-0.21
76541;BMP280;65385;55.772;37.658;2023-02-26T15:40:34;98065.97;;;-0.22
76541;BMP280;65385;55.772;37.658;2023-02-26T15:41:37;98070.84;;;-0.21
76541;BMP280;65385;55.772;37.658;2023-02-26T15:42:39;98064.72;;;-0.20
76541;BMP280;65385;55.772;37.658;2023-02-26T15:43:47;98069.06;;;-0.20
76541;BMP280;65385;55.772;37.658;2023-02-26T15:44:49;98078.00;;;-0.23
76541;BMP280;65385;55.772;37.658;2023-02-26T15:45:52;98072.63;;;-0.21
76541;BMP280;65385;55.772;37.658;2023-02-26T15:46:57;98075.34;;;-0.16
76541;BMP280;65385;55.772;37.658;2023-02-26T15:48:01;98071.09;;;-0.22
76541;BMP280;65385;55.772;37.658;2023-02-26T15:49:07;98071.44;;;-0.30
76541;BMP280;65385;55.772;37.658;2023-02-26T15:50:14;98078.97;;;-0.35
76541;BMP280;65385;55.772;37.658;2023-02-26T15:51:17;98085.44;;;-0.33
76541;BMP280;65385;55.772;37.658;2023-02-26T15:52:21;98075.41;;;-0.34
76541;BMP280;65385;55.772;37.658;2023-02-26T15:53:33;98086.13;;;-0.38
76541;BMP280;65385;55.772;37.658;2023-02-26T15:54:43;98067.38;;;-0.38
76541;BMP280;65385;55.772;37.658;2023-02-26T15:55:49;98085.56;;;-0.40
76541;BMP280;65385;55.772;37.658;2023-02-26T15:56:51;98095.72;;;-0.45
76541;BMP280;65385;55.772;37.658;2023-02-26T15:57:53;98095.81;;;-0.40
76541;BMP280;65385;55.772;37.658;2023-02-26T15:58:58;98092.38;;;-0.45
76541;BMP280;65385;55.772;37.658;2023-02-26T16:00:04;98107.88;;;-0.52
76541;BMP280;65385;55.772;37.658;2023-02-26T16:01:22;98101.03;;;-0.58
76541;BMP280;65385;55.772;37.658;2023-02-26T16:02:29;98098.47;;;-0.58
76541;BMP280;65385;55.772;37.658;2023-02-26T16:03:34;98109.97;;;-0.60
76541;BMP280;65385;55.772;37.658;2023-02-26T16:04:35;98103.69;;;-0.64
76541;BMP280;65385;55.772;37.658;2023-02-26T16:05:36;98110.63;;;-0.65
76541;BMP280;65385;55.772;37.658;2023-02-26T16:06:43;98109.06;;;-0.66
76541;BMP280;65385;55.772;37.658;2023-02-26T16:07:45;98109.28;;;-0.67
76541;BMP280;65385;55.772;37.658;2023-02-26T16:08:46;98105.38;;;-0.70
76541;BMP280;65385;55.772;37.658;2023-02-26T16:09:49;98112.41;;;-0.65
76541;BMP280;65385;55.772;37.658;2023-02-26T16:10:52;98109.81;;;-0.65
76541;BMP280;65385;55.772;37.658;2023-02-26T16:11:57;98108.03;;;-0.65
76541;BMP280;65385;55.772;37.658;2023-02-26T16:12:58;98113.44;;;-0.66
76541;BMP280;65385;55.772;37.658;2023-02-26T16:14:00;98117.78;;;-0.67
76541;BMP280;65385;55.772;37.658;2023-02-26T16:15:05;98113.06;;;-0.70
76541;BMP280;65385;55.772;37.658;2023-02-26T16:16:12;98120.66;;;-0.63
76541;BMP280;65385;55.772;37.658;2023-02-26T16:17:35;98123.91;;;-0.68
76541;BMP280;65385;55.772;37.658;2023-02-26T16:18:39;98112.50;;;-0.72
76541;BMP280;65385;55.772;37.658;2023-02-26T16:19:44;98117.19;;;-0.69
76541;BMP280;65385;55.772;37.658;2023-02-26T16:20:47;98127.47;;;-0.69
76541;BMP280;65385;55.772;37.658;2023-02-26T16:21:50;98122.75;;;-0.72
76541;BMP280;65385;55.772;37.658;2023-02-26T16:22:58;98128.47;;;-0.70
76541;BMP280;65385;55.772;37.658;2023-02-26T16:24:03;98124.69;;;-0.67
76541;BMP280;65385;55.772;37.658;2023-02-26T16:25:18;98136.84;;;-0.63
76541;BMP280;65385;55.772;37.658;2023-02-26T16:26:30;98141.19;;;-0.63
76541;BMP280;65385;55.772;37.658;2023-02-26T16:27:32;98133.06;;;-0.60
76541;BMP280;65385;55.772;37.658;2023-02-26T16:28:37;98132.59;;;-0.57
76541;BMP280;65385;55.772;37.658;2023-02-26T16:29:52;98137.75;;;-0.57
76541;BMP280;65385;55.772;37.658;2023-02-26T16:30:56;98136.97;;;-0.58
76541;BMP280;65385;55.772;37.658;2023-02-26T16:32:01;98136.97;;;-0.58
76541;BMP280;65385;55.772;37.658;2023-02-26T16:33:04;98141.09;;;-0.57
76541;BMP280;65385;55.772;37.658;2023-02-26T16:35:22;98143.44;;;-0.55
76541;BMP280;65385;55.772;37.658;2023-02-26T16:36:26;98147.56;;;-0.54
76541;BMP280;65385;55.772;37.658;2023-02-26T16:41:11;98147.91;;;-0.51
76541;BMP280;65385;55.772;37.658;2023-02-26T16:42:15;98156.38;;;-0.50
76541;BMP280;65385;55.772;37.658;2023-02-26T16:44:48;98150.94;;;-0.54
76541;BMP280;65385;55.772;37.658;2023-02-26T16:45:53;98156.84;;;-0.53
76541;BMP280;65385;55.772;37.658;2023-02-26T16:46:55;98161.75;;;-0.52
76541;BMP280;65385;55.772;37.658;2023-02-26T16:47:57;98147.22;;;-0.58
76541;BMP280;65385;55.772;37.658;2023-02-26T16:50:25;98182.59;;;-0.60
76541;BMP280;65385;55.772;37.658;2023-02-26T16:51:29;98182.69;;;-0.66
76541;BMP280;65385;55.772;37.658;2023-02-26T16:52:30;98176.09;;;-0.74
76541;BMP280;65385;55.772;37.658;2023-02-26T16:53:43;98193.47;;;-0.76
76541;BMP280;65385;55.772;37.658;2023-02-26T16:54:52;98189.75;;;-0.80
76541;BMP280;65385;55.772;37.658;2023-02-26T16:55:55;98186.78;;;-0.77
76541;BMP280;65385;55.772;37.658;2023-02-26T16:56:58;98181.22;;;-0.74
76541;BMP280;65385;55.772;37.658;2023-02-26T16:58:00;98193.88;;;-0.79
76541;BMP280;65385;55.772;37.658;2023-02-26T16:59:21;98188.44;;;-0.83
76541;BMP280;65385;55.772;37.658;2023-02-26T17:00:24;98198.97;;;-0.91
76541;BMP280;65385;55.772;37.658;2023-02-26T17:01:35;98196.75;;;-0.87
76541;BMP280;65385;55.772;37.658;2023-02-26T17:02:37;98208.88;;;-0.94
76541;BMP280;65385;55.772;37.658;2023-02-26T17:03:38;98208.16;;;-1.01
76541;BMP280;65385;55.772;37.658;2023-02-26T17:04:40;98202.91;;;-1.06
76541;BMP280;65385;55.772;37.658;2023-02-26T17:05:51;98194.63;;;-1.08
76541;BMP280;65385;55.772;37.658;2023-02-26T17:06:53;98204.56;;;-1.12
76541;BMP280;65385;55.772;37.658;2023-02-26T17:08:00;98210.25;;;-1.10
76541;BMP280;65385;55.772;37.658;2023-02-26T17:09:01;98217.59;;;-1.13
76541;BMP280;65385;55.772;37.658;2023-02-26T17:10:17;98211.09;;;-1.16
76541;BMP280;65385;55.772;37.658;2023-02-26T17:11:31;98218.44;;;-1.20
76541;BMP280;65385;55.772;37.658;2023-02-26T17:12:42;98216.28;;;-1.23
76541;BMP280;65385;55.772;37.658;2023-02-26T17:14:03;98227.34;;;-1.22
76541;BMP280;65385;55.772;37.658;2023-02-26T17:15:15;98231.13;;;-1.25
76541;BMP280;65385;55.772;37.658;2023-02-26T17:16:16;98228.56;;;-1.25
76541;BMP280;65385;55.772;37.658;2023-02-26T17:17:22;98233.03;;;-1.20
76541;BMP280;65385;55.772;37.658;2023-02-26T17:18:23;98232.66;;;-1.24
76541;BMP280;65385;55.772;37.658;2023-02-26T17:19:24;98234.63;;;-1.19
76541;BMP280;65385;55.772;37.658;2023-02-26T17:20:25;98233.63;;;-1.18
76541;BMP280;65385;55.772;37.658;2023-02-26T17:21:27;98230.69;;;-1.22
76541;BMP280;65385;55.772;37.658;2023-02-26T17:22:28;98229.47;;;-1.19
76541;BMP280;65385;55.772;37.658;2023-02-26T17:23:32;98232.84;;;-1.19
76541;BMP280;65385;55.772;37.658;2023-02-26T17:24:38;98218.00;;;-1.17
76541;BMP280;65385;55.772;37.658;2023-02-26T17:25:43;98215.66;;;-1.18
76541;BMP280;65385;55.772;37.658;2023-02-26T17:26:45;98225.16;;;-1.19
76541;BMP280;65385;55.772;37.658;2023-02-26T17:27:47;98227.72;;;-1.19
76541;BMP280;65385;55.772;37.658;2023-02-26T17:28:47;98235.41;;;-1.19
76541;BMP280;65385;55.772;37.658;2023-02-26T17:29:49;98229.03;;;-1.16
76541;BMP280;65385;55.772;37.658;2023-02-26T17:30:51;98237.88;;;-1.12
76541;BMP280;65385;55.772;37.658;2023-02-26T17:31:51;98243.00;;;-1.12
76541;BMP280;65385;55.772;37.658;2023-02-26T17:32:52;98240.00;;;-1.09
76541;BMP280;65385;55.772;37.658;2023-02-26T17:33:52;98233.75;;;-1.13
76541;BMP280;65385;55.772;37.658;2023-02-26T17:34:53;98247.69;;;-1.09
76541;BMP280;65385;55.772;37.658;2023-02-26T17:35:59;98250.25;;;-1.09
76541;BMP280;65385;55.772;37.658;2023-02-26T17:37:01;98237.09;;;-1.12
76541;BMP280;65385;55.772;37.658;2023-02-26T17:38:08;98249.91;;;-1.12
76541;BMP280;65385;55.772;37.658;2023-02-26T17:39:12;98239.66;;;-1.12
76541;BMP280;65385;55.772;37.658;2023-02-26T17:41:23;98242.03;;;-1.11
76541;BMP280;65385;55.772;37.658;2023-02-26T17:42:23;98253.47;;;-1.13
76541;BMP280;65385;55.772;37.658;2023-02-26T17:43:24;98248.34;;;-1.13
76541;BMP280;65385;55.772;37.658;2023-02-26T17:44:25;98250.34;;;-1.16
76541;BMP280;65385;55.772;37.658;2023-02-26T17:45:26;98243.22;;;-1.13
76541;BMP280;65385;55.772;37.658;2023-02-26T17:46:26;98251.69;;;-1.13
76541;BMP280;65385;55.772;37.658;2023-02-26T17:47:27;98256.63;;;-1.11
76541;BMP280;65385;55.772;37.658;2023-02-26T17:48:27;98255.47;;;-1.16
76541;BMP280;65385;55.772;37.658;2023-02-26T17:49:29;98264.16;;;-1.17
76541;BMP280;65385;55.772;37.658;2023-02-26T17:51:49;98255.91;;;-1.19
76541;BMP280;65385;55.772;37.658;2023-02-26T17:52:53;98263.38;;;-1.17
76541;BMP280;65385;55.772;37.658;2023-02-26T17:53:53;98269.28;;;-1.17
76541;BMP280;65385;55.772;37.658;2023-02-26T17:54:54;98271.41;;;-1.13
76541;BMP280;65385;55.772;37.658;2023-02-26T17:55:54;98274.97;;;-1.14
76541;BMP280;65385;55.772;37.658;2023-02-26T17:56:55;98265.50;;;-1.14
76541;BMP280;65385;55.772;37.658;2023-02-26T17:57:56;98258.75;;;-1.08
76541;BMP280;65385;55.772;37.658;2023-02-26T17:58:58;98266.88;;;-1.11
76541;BMP280;65385;55.772;37.658;2023-02-26T17:59:58;98257.25;;;-1.16
76541;BMP280;65385;55.772;37.658;2023-02-26T18:00:59;98263.94;;;-1.15
76541;BMP280;65385;55.772;37.658;2023-02-26T18:02:14;98278.53;;;-1.16
76541;BMP280;65385;55.772;37.658;2023-02-26T18:03:15;98273.84;;;-1.19
76541;BMP280;65385;55.772;37.658;2023-02-26T18:04:15;98278.41;;;-1.21
76541;BMP280;65385;55.772;37.658;2023-02-26T18:05:17;98285.72;;;-1.24
76541;BMP280;65385;55.772;37.658;2023-02-26T18:06:18;98283.09;;;-1.18
76541;BMP280;65385;55.772;37.658;2023-02-26T18:07:20;98280.53;;;-1.18
76541;BMP280;65385;55.772;37.658;2023-02-26T18:09:24;98275.34;;;-1.11
76541;BMP280;65385;55.772;37.658;2023-02-26T18:10:24;98266.09;;;-1.12
76541;BMP280;65385;55.772;37.658;2023-02-26T18:11:25;98279.53;;;-1.17
76541;BMP280;65385;55.772;37.658;2023-02-26T18:12:26;98295.69;;;-1.16
76541;BMP280;65385;55.772;37.658;2023-02-26T18:13:28;98288.25;;;-1.18
76541;BMP280;65385;55.772;37.658;2023-02-26T18:14:29;98282.41;;;-1.25
76541;BMP280;65385;55.772;37.658;2023-02-26T18:15:29;98292.22;;;-1.22
76541;BMP280;65385;55.772;37.658;2023-02-26T18:16:39;98278.78;;;-1.17
76541;BMP280;65385;55.772;37.658;2023-02-26T18:17:40;98295.22;;;-1.25
76541;BMP280;65385;55.772;37.658;2023-02-26T18:18:42;98296.53;;;-1.22
76541;BMP280;65385;55.772;37.658;2023-02-26T18:19:43;98304.81;;;-1.20
76541;BMP280;65385;55.772;37.658;2023-02-26T18:20:45;98296.53;;;-1.22
76541;BMP280;65385;55.772;37.658;2023-02-26T18:21:46;98297.31;;;-1.22
76541;BMP280;65385;55.772;37.658;2023-02-26T18:22:48;98307.78;;;-1.23
76541;BMP280;65385;55.772;37.658;2023-02-26T18:23:49;98310.59;;;-1.25
76541;BMP280;65385;55.772;37.658;2023-02-26T18:24:51;98309.75;;;-1.19
76541;BMP280;65385;55.772;37.658;2023-02-26T18:25:53;98309.16;;;-1.21
76541;BMP280;65385;55.772;37.658;2023-02-26T18:26:54;98311.56;;;-1.26
76541;BMP280;65385;55.772;37.658;2023-02-26T18:27:55;98299.97;;;-1.28
76541;BMP280;65385;55.772;37.658;2023-02-26T18:29:01;98312.78;;;-1.28
76541;BMP280;65385;55.772;37.658;2023-02-26T18:30:03;98319.88;;;-1.30
76541;BMP280;65385;55.772;37.658;2023-02-26T18:31:04;98329.34;;;-1.31
76541;BMP280;65385;55.772;37.658;2023-02-26T18:32:16;98318.09;;;-1.30
76541;BMP280;65385;55.772;37.658;2023-02-26T18:33:18;98323.44;;;-1.31
76541;BMP280;65385;55.772;37.658;2023-02-26T18:34:18;98313.59;;;-1.34
76541;BMP280;65385;55.772;37.658;2023-02-26T18:35:19;98319.13;;;-1.37
76541;BMP280;65385;55.772;37.658;2023-02-26T18:36:23;98321.69;;;-1.37
76541;BMP280;65385;55.772;37.658;2023-02-26T18:37:29;98330.16;;;-1.37
76541;BMP280;65385;55.772;37.658;2023-02-26T18:38:29;98330.16;;;-1.37
76541;BMP280;65385;55.772;37.658;2023-02-26T18:39:30;98316.34;;;-1.36
76541;BMP280;65385;55.772;37.658;2023-02-26T18:40:33;98326.59;;;-1.36
76541;BMP280;65385;55.772;37.658;2023-02-26T18:41:34;98339.41;;;-1.36
76541;BMP280;65385;55.772;37.658;2023-02-26T18:42:35;98330.81;;;-1.41
76541;BMP280;65385;55.772;37.658;2023-02-26T18:43:36;98329.03;;;-1.41
76541;BMP280;65385;55.772;37.658;2023-02-26T18:44:36;98331.00;;;-1.43
76541;BMP280;65385;55.772;37.658;2023-02-26T18:45:44;98346.19;;;-1.41
76541;BMP280;65385;55.772;37.658;2023-02-26T18:46:46;98350.50;;;-1.42
76541;BMP280;65385;55.772;37.658;2023-02-26T18:47:47;98349.34;;;-1.46
76541;BMP280;65385;55.772;37.658;2023-02-26T18:48:47;98346.59;;;-1.44
76541;BMP280;65385;55.772;37.658;2023-02-26T18:49:49;98349.94;;;-1.44
76541;BMP280;65385;55.772;37.658;2023-02-26T18:50:50;98358.19;;;-1.42
76541;BMP280;65385;55.772;37.658;2023-02-26T18:51:50;98340.06;;;-1.40
76541;BMP280;65385;55.772;37.658;2023-02-26T18:52:51;98347.75;;;-1.40
76541;BMP280;65385;55.772;37.658;2023-02-26T18:53:51;98359.19;;;-1.43
76541;BMP280;65385;55.772;37.658;2023-02-26T18:54:52;98348.34;;;-1.45
76541;BMP280;65385;55.772;37.658;2023-02-26T18:55:53;98357.03;;;-1.46
76541;BMP280;65385;55.772;37.658;2023-02-26T18:56:54;98357.47;;;-1.49
76541;BMP280;65385;55.772;37.658;2023-02-26T18:57:54;98359.03;;;-1.48
76541;BMP280;65385;55.772;37.658;2023-02-26T18:58:55;98361.81;;;-1.49
76541;BMP280;65385;55.772;37.658;2023-02-26T18:59:55;98361.59;;;-1.48
76541;BMP280;65385;55.772;37.658;2023-02-26T19:00:56;98351.91;;;-1.46
76541;BMP280;65385;55.772;37.658;2023-02-26T19:01:59;98359.03;;;-1.48
76541;BMP280;65385;55.772;37.658;2023-02-26T19:02:59;98377.38;;;-1.51
76541;BMP280;65385;55.772;37.658;2023-02-26T19:04:00;98373.69;;;-1.55
76541;BMP280;65385;55.772;37.658;2023-02-26T19:05:01;98376.44;;;-1.57
76541;BMP280;65385;55.772;37.658;2023-02-26T19:06:04;98380.97;;;-1.59
76541;BMP280;65385;55.772;37.658;2023-02-26T19:07:06;98367.38;;;-1.59
76541;BMP280;65385;55.772;37.658;2023-02-26T19:08:07;98376.63;;;-1.58
76541;BMP280;65385;55.772;37.658;2023-02-26T19:09:08;98372.50;;;-1.59
76541;BMP280;65385;55.772;37.658;2023-02-26T19:10:10;98377.63;;;-1.59
76541;BMP280;65385;55.772;37.658;2023-02-26T19:11:13;98370.94;;;-1.60
76541;BMP280;65385;55.772;37.658;2023-02-26T19:12:14;98368.97;;;-1.58
76541;BMP280;65385;55.772;37.658;2023-02-26T19:13:19;98381.75;;;-1.58
76541;BMP280;65385;55.772;37.658;2023-02-26T19:14:20;98368.75;;;-1.57
76541;BMP280;65385;55.772;37.658;2023-02-26T19:15:21;98387.31;;;-1.61
76541;BMP280;65385;55.772;37.658;2023-02-26T19:16:22;98395.19;;;-1.63
76541;BMP280;65385;55.772;37.658;2023-02-26T19:17:22;98391.06;;;-1.64
76541;BMP280;65385;55.772;37.658;2023-02-26T19:18:23;98393.78;;;-1.59
76541;BMP280;65385;55.772;37.658;2023-02-26T19:19:24;98387.09;;;-1.60
76541;BMP280;65385;55.772;37.658;2023-02-26T19:20:25;98403.84;;;-1.57
76541;BMP280;65385;55.772;37.658;2023-02-26T19:21:25;98398.91;;;-1.59
76541;BMP280;65385;55.772;37.658;2023-02-26T19:22:27;98392.22;;;-1.60
76541;BMP280;65385;55.772;37.658;2023-02-26T19:23:27;98403.25;;;-1.59
76541;BMP280;65385;55.772;37.658;2023-02-26T19:24:28;98409.34;;;-1.60
76541;BMP280;65385;55.772;37.658;2023-02-26T19:25:29;98394.78;;;-1.60
76541;BMP280;65385;55.772;37.658;2023-02-26T19:26:31;98396.00;;;-1.62
76541;BMP280;65385;55.772;37.658;2023-02-26T19:27:32;98411.13;;;-1.61
76541;BMP280;65385;55.772;37.658;2023-02-26T19:28:32;98409.19;;;-1.65
76541;BMP280;65385;55.772;37.658;2023-02-26T19:29:33;98401.50;;;-1.65
76541;BMP280;65385;55.772;37.658;2023-02-26T19:30:35;98407.22;;;-1.63
76541;BMP280;65385;55.772;37.658;2023-02-26T19:31:38;98417.47;;;-1.63
76541;BMP280;65385;55.772;37.658;2023-02-26T19:32:39;98407.22;;;-1.63
76541;BMP280;65385;55.772;37.658;2023-02-26T19:33:39;98425.34;;;-1.65
76541;BMP280;65385;55.772;37.658;2023-02-26T19:34:40;98425.34;;;-1.65
76541;BMP280;65385;55.772;37.658;2023-02-26T19:35:41;98429.91;;;-1.67
76541;BMP280;65385;55.772;37.658;2023-02-26T19:36:41;98425.56;;;-1.66
76541;BMP280;65385;55.772;37.658;2023-02-26T19:37:47;98431.66;;;-1.67
76541;BMP280;65385;55.772;37.658;2023-02-26T19:38:48;98423.44;;;-1.69
76541;BMP280;65385;55.772;37.658;2023-02-26T19:39:49;98428.53;;;-1.69
76541;BMP280;65385;55.772;37.658;2023-02-26T19:40:50;98441.16;;;-1.74
76541;BMP280;65385;55.772;37.658;2023-02-26T19:41:51;98434.25;;;-1.74
76541;BMP280;65385;55.772;37.658;2023-02-26T19:42:54;98433.72;;;-1.76
76541;BMP280;65385;55.772;37.658;2023-02-26T19:43:55;98439.19;;;-1.72
76541;BMP280;65385;55.772;37.658;2023-02-26T19:44:56;98439.59;;;-1.75
76541;BMP280;65385;55.772;37.658;2023-02-26T19:45:57;98439.19;;;-1.72
76541;BMP280;65385;55.772;37.658;2023-02-26T19:46:58;98448.06;;;-1.75
76541;BMP280;65385;55.772;37.658;2023-02-26T19:47:58;98445.50;;;-1.75
76541;BMP280;65385;55.772;37.658;2023-02-26T19:48:59;98428.78;;;-1.77
76541;BMP280;65385;55.772;37.658;2023-02-26T19:49:59;98435.66;;;-1.71
76541;BMP280;65385;55.772;37.658;2023-02-26T19:51:00;98435.25;;;-1.68
76541;BMP280;65385;55.772;37.658;2023-02-26T19:52:02;98447.06;;;-1.74
76541;BMP280;65385;55.772;37.658;2023-02-26T19:53:02;98440.59;;;-1.76
76541;BMP280;65385;55.772;37.658;2023-02-26T19:54:03;98431.34;;;-1.77
76541;BMP280;65385;55.772;37.658;2023-02-26T19:55:06;98442.97;;;-1.81
76541;BMP280;65385;55.772;37.658;2023-02-26T19:56:07;98442.41;;;-1.83
76541;BMP280;65385;55.772;37.658;2023-02-26T19:57:08;98447.53;;;-1.83
76541;BMP280;65385;55.772;37.658;2023-02-26T19:58:08;98445.97;;;-1.84
76541;BMP280;65385;55.772;37.658;2023-02-26T19:59:09;98462.66;;;-1.88
76541;BMP280;65385;55.772;37.658;2023-02-26T20:00:11;98455.56;;;-1.86
76541;BMP280;65385;55.772;37.658;2023-02-26T20:01:14;98453.03;;;-1.86
76541;BMP280;65385;55.772;37.658;2023-02-26T20:02:15;98458.13;;;-1.86
76541;BMP280;65385;55.772;37.658;2023-02-26T20:03:15;98466.81;;;-1.87
76541;BMP280;65385;55.772;37.658;2023-02-26T20:04:16;98453.41;;;-1.89
76541;BMP280;65385;55.772;37.658;2023-02-26T20:05:17;98463.66;;;-1.89
76541;BMP280;65385;55.772;37.658;2023-02-26T20:06:19;98464.06;;;-1.86
76541;BMP280;65385;55.772;37.658;2023-02-26T20:07:19;98457.78;;;-1.83
76541;BMP280;65385;55.772;37.658;2023-02-26T20:08:21;98471.13;;;-1.81
76541;BMP280;65385;55.772;37.658;2023-02-26T20:09:24;98469.78;;;-1.84
76541;BMP280;65385;55.772;37.658;2023-02-26T20:10:27;98476.69;;;-1.84
76541;BMP280;65385;55.772;37.658;2023-02-26T20:11:28;98455.97;;;-1.89
76541;BMP280;65385;55.772;37.658;2023-02-26T20:12:29;98474.91;;;-1.84
76541;BMP280;65385;55.772;37.658;2023-02-26T20:13:29;98487.72;;;-1.84
76541;BMP280;65385;55.772;37.658;2023-02-26T20:14:34;98477.84;;;-1.80
76541;BMP280;65385;55.772;37.658;2023-02-26T20:15:34;98483.38;;;-1.83
76541;BMP280;65385;55.772;37.658;2023-02-26T20:16:35;98486.13;;;-1.85
76541;BMP280;65385;55.772;37.658;2023-02-26T20:17:36;98488.88;;;-1.86
76541;BMP280;65385;55.772;37.658;2023-02-26T20:18:38;98488.88;;;-1.86
76541;BMP280;65385;55.772;37.658;2023-02-26T20:19:39;98499.31;;;-1.81
76541;BMP280;65385;55.772;37.658;2023-02-26T20:20:39;98493.03;;;-1.85
76541;BMP280;65385;55.772;37.658;2023-02-26T20:21:41;98503.09;;;-1.84
76541;BMP280;65385;55.772;37.658;2023-02-26T20:22:41;98497.53;;;-1.87
76541;BMP280;65385;55.772;37.658;2023-02-26T20:23:42;98493.03;;;-1.85
76541;BMP280;65385;55.772;37.658;2023-02-26T20:24:43;98495.97;;;-1.82
76541;BMP280;65385;55.772;37.658;2023-02-26T20:25:43;98507.41;;;-1.84
76541;BMP280;65385;55.772;37.658;2023-02-26T20:26:44;98517.22;;;-1.88
76541;BMP280;65385;55.772;37.658;2023-02-26T20:27:48;98523.94;;;-1.87
76541;BMP280;65385;55.772;37.658;2023-02-26T20:28:48;98503.63;;;-1.88
76541;BMP280;65385;55.772;37.658;2023-02-26T20:29:49;98516.88;;;-1.92
76541;BMP280;65385;55.772;37.658;2023-02-26T20:30:50;98525.09;;;-1.89
76541;BMP280;65385;55.772;37.658;2023-02-26T20:31:51;98503.44;;;-1.87
76541;BMP280;65385;55.772;37.658;2023-02-26T20:32:52;98524.13;;;-1.88
76541;BMP280;65385;55.772;37.658;2023-02-26T20:33:52;98530.22;;;-1.89
76541;BMP280;65385;55.772;37.658;2023-02-26T20:34:53;98512.13;;;-1.81
76541;BMP280;65385;55.772;37.658;2023-02-26T20:35:54;98527.91;;;-1.84